createdAt,value
2022-10-04T00:03:08.600Z,14.33
2022-10-04T00:06:21.238Z,14.34
2022-10-04T00:09:33.595Z,14.30
2022-10-04T00:12:46.644Z,14.26
2022-10-04T00:15:54.374Z,14.25
2022-10-04T00:19:27.483Z,14.25
2022-10-04T00:22:34.643Z,14.25
2022-10-04T00:25:40.812Z,14.24
2022-10-04T00:28:46.929Z,14.22
2022-10-04T00:32:27.208Z,14.18
2022-10-04T00:35:51.131Z,14.20
2022-10-04T00:39:16.307Z,14.21
2022-10-04T00:42:47.121Z,14.23
2022-10-04T00:45:58.910Z,14.25
2022-10-04T00:49:08.771Z,14.25
2022-10-04T00:52:17.839Z,14.25
2022-10-04T00:55:33.343Z,14.24
2022-10-04T00:58:48.865Z,14.25
2022-10-04T01:02:00.659Z,14.27
2022-10-04T01:05:12.030Z,14.27
2022-10-04T01:08:25.378Z,14.27
2022-10-04T01:11:37.221Z,14.24
2022-10-04T01:14:50.948Z,14.21
2022-10-04T01:18:15.901Z,14.21
2022-10-04T01:21:29.914Z,14.22
2022-10-04T01:24:39.051Z,14.21
2022-10-04T01:27:46.552Z,14.23
2022-10-04T01:30:53.131Z,14.23
2022-10-04T01:34:00.977Z,14.19
2022-10-04T01:37:07.346Z,14.17
2022-10-04T01:40:14.298Z,14.15
2022-10-04T01:43:28.061Z,14.14
2022-10-04T01:46:37.650Z,14.14
2022-10-04T01:49:46.846Z,14.10
2022-10-04T01:52:56.800Z,14.08
2022-10-04T01:56:10.685Z,14.08
2022-10-04T01:59:21.415Z,14.08
2022-10-04T02:02:35.732Z,14.09
2022-10-04T02:05:46.308Z,14.12
2022-10-04T02:08:57.759Z,14.15
2022-10-04T02:12:05.251Z,14.15
2022-10-04T02:15:13.128Z,14.14
2022-10-04T02:18:22.767Z,14.15
2022-10-04T02:21:29.443Z,14.17
2022-10-04T02:24:38.702Z,14.18
2022-10-04T02:27:44.969Z,14.18
2022-10-04T02:31:07.427Z,14.19
2022-10-04T02:34:14.579Z,14.22
2022-10-04T02:37:22.599Z,14.21
2022-10-04T02:40:33.915Z,14.22
2022-10-04T02:43:47.415Z,14.23
2022-10-04T02:46:57.346Z,14.23
2022-10-04T02:50:10.512Z,14.24
2022-10-04T02:53:25.239Z,14.24
2022-10-04T02:56:32.396Z,14.25
2022-10-04T02:59:42.378Z,14.26
2022-10-04T03:03:16.798Z,14.24
2022-10-04T03:06:26.353Z,14.19
2022-10-04T03:09:33.211Z,14.18
2022-10-04T03:12:39.919Z,14.16
2022-10-04T03:15:46.269Z,14.15
2022-10-04T03:18:54.319Z,14.14
2022-10-04T03:22:03.851Z,14.13
2022-10-04T03:25:18.733Z,14.13
2022-10-04T03:28:25.077Z,14.13
2022-10-04T03:31:33.035Z,14.12
2022-10-04T03:34:41.740Z,14.10
2022-10-04T03:37:48.119Z,14.07
2022-10-04T03:40:57.171Z,14.04
2022-10-04T03:44:05.205Z,14.01
2022-10-04T03:47:14.866Z,13.97
2022-10-04T03:50:25.128Z,13.95
2022-10-04T03:53:43.416Z,13.94
2022-10-04T03:56:49.978Z,13.95
2022-10-04T03:59:57.265Z,13.94
2022-10-04T04:03:07.382Z,13.93
2022-10-04T04:06:19.415Z,13.89
2022-10-04T04:09:33.259Z,13.86
2022-10-04T04:12:43.491Z,13.83
2022-10-04T04:15:50.474Z,13.82
2022-10-04T04:19:01.168Z,13.84
2022-10-04T04:22:07.664Z,13.87
2022-10-04T04:25:18.419Z,13.89
2022-10-04T04:28:28.946Z,13.90
2022-10-04T04:31:39.700Z,13.90
2022-10-04T04:34:53.999Z,13.92
2022-10-04T04:38:19.209Z,13.90
2022-10-04T04:41:27.174Z,13.91
2022-10-04T04:44:33.410Z,13.90
2022-10-04T04:47:41.959Z,13.91
2022-10-04T04:50:55.031Z,13.88
2022-10-04T04:54:02.905Z,13.92
2022-10-04T04:57:09.116Z,13.92
2022-10-04T05:00:19.124Z,13.94
2022-10-04T05:03:26.209Z,13.93
2022-10-04T05:06:34.422Z,13.96
2022-10-04T05:09:41.199Z,13.99
2022-10-04T05:12:47.373Z,14.00
2022-10-04T05:15:55.370Z,13.99
2022-10-04T05:19:04.540Z,13.97
2022-10-04T05:22:14.770Z,14.03
2022-10-04T05:25:28.114Z,14.07
2022-10-04T05:28:34.633Z,14.07
2022-10-04T05:31:49.538Z,14.08
2022-10-04T05:34:55.951Z,14.09
2022-10-04T05:38:13.282Z,14.09
2022-10-04T05:41:33.342Z,14.08
2022-10-04T05:44:51.896Z,14.09
2022-10-04T05:47:59.575Z,14.13
2022-10-04T05:51:14.058Z,14.15
2022-10-04T05:54:23.402Z,14.15
2022-10-04T05:57:39.915Z,14.15
2022-10-04T06:00:58.754Z,14.15
2022-10-04T06:04:35.551Z,14.14
2022-10-04T06:07:47.624Z,14.16
2022-10-04T06:11:06.807Z,14.19
2022-10-04T06:14:42.820Z,14.22
2022-10-04T06:18:13.331Z,14.26
2022-10-04T06:21:28.791Z,14.28
2022-10-04T06:24:40.590Z,14.30
2022-10-04T06:27:54.148Z,14.34
2022-10-04T06:31:39.550Z,14.41
2022-10-04T06:35:01.009Z,14.49
2022-10-04T06:38:31.342Z,14.47
2022-10-04T06:41:51.684Z,14.49
2022-10-04T06:45:19.508Z,14.50
2022-10-04T06:49:17.573Z,14.54
2022-10-04T06:52:56.880Z,14.59
2022-10-04T06:56:48.445Z,14.64
2022-10-04T07:00:09.406Z,14.67
2022-10-04T07:03:19.464Z,14.71
2022-10-04T07:06:30.723Z,14.73
2022-10-04T07:09:38.331Z,14.77
2022-10-04T07:12:53.018Z,14.83
2022-10-04T07:16:04.793Z,14.90
2022-10-04T07:19:29.168Z,14.94
2022-10-04T07:22:43.446Z,14.97
2022-10-04T07:25:53.870Z,14.99
2022-10-04T07:29:23.689Z,15.02
2022-10-04T07:32:33.678Z,15.05
2022-10-04T07:35:46.284Z,15.10
2022-10-04T07:38:58.548Z,15.14
2022-10-04T07:42:20.727Z,15.19
2022-10-04T07:45:32.835Z,15.26
2022-10-04T07:48:44.089Z,15.32
2022-10-04T07:52:13.607Z,15.35
2022-10-04T07:55:29.030Z,15.37
2022-10-04T07:58:52.992Z,15.40
2022-10-04T08:02:15.109Z,15.44
2022-10-04T08:05:27.437Z,15.44
2022-10-04T08:08:46.927Z,15.44
2022-10-04T08:12:02.944Z,15.41
2022-10-04T08:15:36.126Z,15.37
2022-10-04T08:18:53.659Z,15.35
2022-10-04T08:22:05.711Z,15.33
2022-10-04T08:25:23.384Z,15.29
2022-10-04T08:28:57.561Z,15.27
2022-10-04T08:32:10.587Z,15.34
2022-10-04T08:35:33.543Z,15.42
2022-10-04T08:38:49.435Z,15.47
2022-10-04T08:42:15.380Z,15.46
2022-10-04T08:46:04.245Z,15.45
2022-10-04T08:49:47.023Z,15.52
2022-10-04T08:53:20.847Z,15.57
2022-10-04T08:56:46.875Z,15.62
2022-10-04T09:00:13.835Z,15.64
2022-10-04T09:03:49.919Z,15.66
2022-10-04T09:07:11.255Z,15.70
2022-10-04T09:10:39.392Z,15.74
2022-10-04T09:13:56.937Z,15.78
2022-10-04T09:17:22.273Z,15.77
2022-10-04T09:20:47.191Z,15.81
2022-10-04T09:24:21.512Z,15.87
2022-10-04T09:28:00.569Z,15.91
2022-10-04T09:31:35.138Z,15.93
2022-10-04T09:35:04.350Z,15.97
2022-10-04T09:38:40.809Z,16.02
2022-10-04T09:42:07.492Z,16.08
2022-10-04T09:45:37.819Z,16.15
2022-10-04T09:48:53.950Z,16.21
2022-10-04T09:52:22.608Z,16.25
2022-10-04T09:55:55.580Z,16.31
2022-10-04T09:59:40.253Z,16.41
2022-10-04T10:03:19.203Z,16.48
2022-10-04T10:06:54.417Z,16.55
2022-10-04T10:10:26.699Z,16.60
2022-10-04T10:13:58.696Z,16.61
2022-10-04T10:17:16.262Z,16.63
2022-10-04T10:20:52.627Z,16.69
2022-10-04T10:24:35.118Z,16.70
2022-10-04T10:27:55.416Z,16.76
2022-10-04T10:31:23.518Z,16.73
2022-10-04T10:34:57.289Z,16.71
2022-10-04T10:38:25.792Z,16.77
2022-10-04T10:41:53.755Z,16.87
2022-10-04T10:45:33.892Z,16.91
2022-10-04T10:49:06.264Z,17.01
2022-10-04T10:52:44.707Z,17.12
2022-10-04T10:56:30.243Z,17.14
2022-10-04T11:00:21.521Z,16.61
2022-10-04T11:03:54.891Z,16.22
2022-10-04T11:07:31.215Z,16.12
2022-10-04T11:11:09.423Z,16.05
2022-10-04T11:14:33.323Z,15.94
2022-10-04T11:18:13.521Z,15.88
2022-10-04T11:21:43.281Z,15.86
2022-10-04T11:25:18.174Z,15.84
2022-10-04T11:28:32.919Z,15.83
2022-10-04T11:32:19.553Z,15.81
2022-10-04T11:35:47.441Z,15.76
2022-10-04T11:39:08.109Z,15.73
2022-10-04T11:42:27.823Z,15.73
2022-10-04T11:46:08.476Z,15.75
2022-10-04T11:49:49.174Z,15.84
2022-10-04T11:53:22.215Z,15.95
2022-10-04T11:56:42.843Z,16.02
2022-10-04T12:00:00.213Z,16.13
2022-10-04T12:03:31.468Z,16.16
2022-10-04T12:06:56.059Z,16.15
2022-10-04T12:10:24.750Z,16.13
2022-10-04T12:13:50.741Z,16.12
2022-10-04T12:17:25.583Z,16.12
2022-10-04T12:20:58.369Z,16.17
2022-10-04T12:24:32.771Z,16.24
2022-10-04T12:28:12.966Z,16.30
2022-10-04T12:31:24.308Z,16.33
2022-10-04T12:34:38.285Z,16.32
2022-10-04T12:37:56.392Z,16.25
2022-10-04T12:41:12.664Z,16.11
2022-10-04T12:44:32.568Z,16.08
2022-10-04T12:48:05.289Z,16.12
2022-10-04T12:51:29.017Z,16.22
2022-10-04T12:54:43.351Z,16.35
2022-10-04T12:57:57.897Z,16.49
2022-10-04T13:01:12.394Z,16.63
2022-10-04T13:04:29.363Z,16.70
2022-10-04T13:07:46.395Z,16.64
2022-10-04T13:11:18.770Z,16.51
2022-10-04T13:14:51.495Z,16.47
2022-10-04T13:18:06.700Z,16.58
2022-10-04T13:21:18.121Z,16.64
2022-10-04T13:24:53.468Z,16.68
2022-10-04T13:28:03.214Z,16.60
2022-10-04T13:31:15.866Z,16.51
2022-10-04T13:34:32.996Z,16.52
2022-10-04T13:37:51.560Z,16.56
2022-10-04T13:41:11.951Z,16.64
2022-10-04T13:44:33.538Z,16.62
2022-10-04T13:47:58.276Z,16.57
2022-10-04T13:52:15.150Z,16.53
2022-10-04T13:55:49.780Z,16.47
2022-10-04T13:59:05.093Z,16.45
2022-10-04T14:02:44.231Z,16.43
2022-10-04T14:06:19.963Z,16.41
2022-10-04T14:13:37.021Z,16.37
2022-10-04T14:17:15.573Z,16.34
2022-10-04T14:20:53.846Z,16.33
2022-10-04T14:24:39.066Z,16.33
2022-10-04T14:28:18.163Z,16.34
2022-10-04T14:31:40.288Z,16.35
2022-10-04T14:35:01.540Z,16.31
2022-10-04T14:38:32.080Z,16.25
2022-10-04T14:42:04.639Z,16.23
2022-10-04T14:45:29.698Z,16.20
2022-10-04T14:48:50.845Z,16.13
2022-10-04T14:52:14.557Z,16.04
2022-10-04T14:55:49.344Z,16.00
2022-10-04T14:59:09.453Z,15.97
2022-10-04T15:02:51.599Z,15.92
2022-10-04T15:06:11.841Z,15.85
2022-10-04T15:09:50.899Z,15.76
2022-10-04T15:13:11.605Z,15.68
2022-10-04T15:16:31.223Z,15.58
2022-10-04T15:19:54.687Z,15.49
2022-10-04T15:23:16.294Z,15.39
2022-10-04T15:26:56.418Z,15.30
2022-10-04T15:30:14.596Z,15.20
2022-10-04T15:33:40.683Z,15.11
2022-10-04T15:37:06.518Z,15.00
2022-10-04T15:40:34.098Z,14.89
2022-10-04T15:43:46.392Z,14.80
2022-10-04T15:46:57.269Z,14.71
2022-10-04T15:50:24.424Z,14.64
2022-10-04T15:53:51.422Z,14.67
2022-10-04T15:57:01.769Z,14.76
2022-10-04T16:00:15.335Z,15.18
2022-10-04T16:03:32.109Z,15.58
2022-10-04T16:06:51.171Z,15.84
2022-10-04T16:10:08.202Z,16.03
2022-10-04T16:13:41.266Z,16.15
2022-10-04T16:17:14.683Z,16.05
2022-10-04T16:20:40.828Z,15.43
2022-10-04T16:23:48.397Z,14.90
2022-10-04T16:27:24.360Z,14.62
2022-10-04T16:30:38.184Z,14.91
2022-10-04T16:33:55.289Z,15.14
2022-10-04T16:37:13.708Z,15.22
2022-10-04T16:40:34.072Z,15.25
2022-10-04T16:43:50.891Z,15.23
2022-10-04T16:47:02.144Z,15.21
2022-10-04T16:50:13.247Z,15.20
2022-10-04T16:53:32.835Z,15.19
2022-10-04T16:57:22.743Z,15.15
2022-10-04T17:00:38.690Z,15.09
2022-10-04T17:03:49.780Z,15.03
2022-10-04T17:06:59.311Z,14.94
2022-10-04T17:10:20.489Z,14.86
2022-10-04T17:13:33.960Z,14.78
2022-10-04T17:16:48.591Z,14.68
2022-10-04T17:20:03.535Z,14.56
2022-10-04T17:23:22.864Z,14.44
2022-10-04T17:26:42.208Z,14.34
2022-10-04T17:30:06.655Z,14.23
2022-10-04T17:33:31.279Z,14.12
2022-10-04T17:36:43.996Z,14.05
2022-10-04T17:39:54.632Z,13.96
2022-10-04T17:43:07.717Z,13.91
2022-10-04T17:46:24.394Z,13.87
2022-10-04T17:49:59.510Z,13.82
2022-10-04T17:53:31.055Z,13.75
2022-10-04T17:56:44.239Z,13.69
2022-10-04T17:59:55.275Z,13.66
2022-10-04T18:03:15.222Z,13.63
2022-10-04T18:06:30.982Z,13.59
2022-10-04T18:09:44.199Z,13.53
2022-10-04T18:12:57.932Z,13.46
2022-10-04T18:16:12.044Z,13.39
2022-10-04T18:19:44.041Z,13.29
2022-10-04T18:22:51.740Z,13.15
2022-10-04T18:26:01.438Z,13.03
2022-10-04T18:29:13.817Z,12.94
2022-10-04T18:32:38.045Z,12.91
2022-10-04T18:35:55.206Z,12.87
2022-10-04T18:39:20.912Z,12.80
2022-10-04T18:42:32.323Z,12.74
2022-10-04T18:45:38.682Z,12.72
2022-10-04T18:48:53.492Z,12.69
2022-10-04T18:52:17.241Z,12.66
2022-10-04T18:55:34.895Z,12.62
2022-10-04T18:59:12.153Z,12.54
2022-10-04T19:02:25.756Z,12.44
2022-10-04T19:05:39.737Z,12.36
2022-10-04T19:08:58.064Z,12.30
2022-10-04T19:12:12.997Z,12.26
2022-10-04T19:15:30.904Z,12.25
2022-10-04T19:18:57.854Z,12.23
2022-10-04T19:22:13.551Z,12.21
2022-10-04T19:25:35.088Z,12.22
2022-10-04T19:28:42.104Z,12.22
2022-10-04T19:31:54.482Z,12.21
2022-10-04T19:35:13.115Z,12.18
2022-10-04T19:38:33.876Z,12.15
2022-10-04T19:41:51.484Z,12.10
2022-10-04T19:45:16.270Z,12.06
2022-10-04T19:48:25.994Z,12.03
2022-10-04T19:51:39.630Z,12.00
2022-10-04T19:54:48.660Z,11.98
2022-10-04T19:58:01.752Z,11.95
2022-10-04T20:01:13.723Z,11.93
2022-10-04T20:04:36.338Z,11.88
2022-10-04T20:07:42.651Z,11.85
2022-10-04T20:10:47.579Z,11.82
2022-10-04T20:14:55.142Z,11.77
2022-10-04T20:18:01.658Z,11.72
2022-10-04T20:21:10.208Z,11.67
2022-10-04T20:24:40.671Z,11.62
2022-10-04T20:28:05.373Z,11.56
2022-10-04T20:31:12.311Z,11.53
2022-10-04T20:34:35.703Z,11.50
2022-10-04T20:38:31.111Z,11.47
2022-10-04T20:42:05.459Z,11.42
2022-10-04T20:45:28.666Z,11.38
2022-10-04T20:48:35.053Z,11.36
2022-10-04T20:51:47.720Z,11.34
2022-10-04T20:54:55.297Z,11.31
2022-10-04T20:58:04.455Z,11.29
2022-10-04T21:01:44.164Z,11.25
2022-10-04T21:04:53.538Z,11.21
2022-10-04T21:08:27.050Z,11.19
2022-10-04T21:11:47.794Z,11.16
2022-10-04T21:15:07.120Z,11.11
2022-10-04T21:18:13.338Z,11.08
2022-10-04T21:21:37.867Z,11.06
2022-10-04T21:24:54.989Z,11.02
2022-10-04T21:28:39.776Z,11.02
2022-10-04T21:31:46.003Z,10.99
2022-10-04T21:34:54.336Z,10.96
2022-10-04T21:38:01.019Z,10.91
2022-10-04T21:41:07.969Z,10.80
2022-10-04T21:44:14.069Z,10.69
2022-10-04T21:47:21.732Z,10.63
2022-10-04T21:50:27.813Z,10.59
2022-10-04T21:53:33.983Z,10.55
2022-10-04T21:56:40.147Z,10.53
2022-10-04T21:59:47.370Z,10.50
2022-10-04T22:02:53.598Z,10.48
2022-10-04T22:05:59.888Z,10.45
2022-10-04T22:09:04.906Z,10.42
2022-10-04T22:12:11.192Z,10.38
2022-10-04T22:15:15.419Z,10.38
2022-10-04T22:18:21.565Z,10.33
2022-10-04T22:21:27.866Z,10.32
2022-10-04T22:24:32.145Z,10.28
2022-10-04T22:27:38.376Z,10.16
2022-10-04T22:30:45.435Z,10.11
2022-10-04T22:33:52.657Z,10.08
2022-10-04T22:36:59.352Z,10.06
2022-10-04T22:40:06.228Z,10.04
2022-10-04T22:43:16.832Z,10.01
2022-10-04T22:46:23.492Z,9.96
2022-10-04T22:49:31.860Z,9.91
2022-10-04T22:52:38.380Z,9.88
2022-10-04T22:55:44.837Z,9.87
2022-10-04T22:58:50.970Z,9.86
2022-10-04T23:01:57.046Z,9.88
2022-10-04T23:05:13.638Z,9.89
2022-10-04T23:08:19.832Z,9.88
2022-10-04T23:11:25.996Z,9.88
2022-10-04T23:14:32.159Z,9.87
2022-10-04T23:17:40.740Z,9.86
2022-10-04T23:20:49.812Z,9.81
2022-10-04T23:23:56.352Z,9.76
2022-10-04T23:27:03.976Z,9.73
2022-10-04T23:30:16.907Z,9.73
2022-10-04T23:33:25.014Z,9.73
2022-10-04T23:36:31.679Z,9.73
2022-10-04T23:39:38.219Z,9.73
2022-10-04T23:42:44.658Z,9.71
2022-10-04T23:45:51.447Z,9.65
2022-10-04T23:48:57.671Z,9.63
2022-10-04T23:52:11.519Z,9.61
2022-10-04T23:55:20.477Z,9.60
2022-10-04T23:58:29.174Z,9.60
